Time;durP1;ratioP1;P1;durP2;ratioP2;P2;SDS_P1;SDS_P2;PMS_P1;PMS_P2;Temp;Humidity;BMP_temperature;BMP_pressure;BME280_temperature;BME280_humidity;BME280_pressure;Samples;Min_cycle;Max_cycle;Signal;HPM_P1;HPM_P2
2021/06/06 00:02:21;;;;;;;1999.90;999.90;;;17.70;99.90;;;;;;5059884;28;20414;-85
2021/06/06 00:05:09;;;;;;;1999.90;999.90;;;17.60;99.90;;;;;;5040737;28;20497;-86
2021/06/06 00:11:11;;;;;;;1999.90;999.90;;;17.50;99.90;;;;;;5032444;28;20416;-91
2021/06/06 00:13:52;;;;;;;1999.90;999.90;;;17.40;99.90;;;;;;5032898;28;20470;-91
2021/06/06 00:16:51;;;;;;;1999.90;999.90;;;17.30;99.90;;;;;;5032527;28;20406;-91
2021/06/06 00:19:39;;;;;;;1999.90;999.90;;;17.20;99.90;;;;;;4937890;29;20430;-91
2021/06/06 00:22:26;;;;;;;1999.90;999.90;;;17.20;99.90;;;;;;5015989;28;20517;-91
2021/06/06 00:25:25;;;;;;;;;;;;;;;;;;;;;
2021/06/06 00:27:53;;;;;;;1999.90;999.90;;;17.10;99.90;;;;;;5031860;28;20417;-91
2021/06/06 00:30:30;;;;;;;1999.90;999.90;;;17.00;99.90;;;;;;5016272;28;20439;-91
2021/06/06 00:32:58;;;;;;;1999.90;999.90;;;17.10;99.90;;;;;;5015652;28;20489;-91
2021/06/06 00:35:25;;;;;;;1999.90;999.90;;;17.10;99.90;;;;;;4996971;28;20505;-91
2021/06/06 00:38:18;;;;;;;1999.90;999.90;;;17.00;99.90;;;;;;5012286;28;20405;-92
2021/06/06 00:41:10;;;;;;;1999.90;999.90;;;17.00;99.90;;;;;;5001402;28;20408;-91
2021/06/06 00:43:59;;;;;;;1999.90;999.90;;;17.10;99.90;;;;;;5017563;28;20445;-91
2021/06/06 00:47:08;;;;;;;1999.90;999.90;;;17.10;99.90;;;;;;5054034;28;20421;-91
2021/06/06 00:52:55;;;;;;;1999.90;999.90;;;17.00;99.90;;;;;;4202804;26;20484;-91
2021/06/06 00:55:33;;;;;;;;;;;;;;;;;;;;;
2021/06/06 01:01:33;;;;;;;1999.90;999.90;;;16.90;99.90;;;;;;5011410;28;20460;-91
2021/06/06 01:04:39;;;;;;;1999.90;999.90;;;16.90;99.90;;;;;;5061822;28;20828;-91
2021/06/06 01:11:29;;;;;;;1999.90;999.90;;;16.90;99.90;;;;;;5070266;28;20438;-91
2021/06/06 01:14:48;;;;;;;1999.90;999.90;;;16.80;99.90;;;;;;4975988;28;20455;-91
2021/06/06 01:17:46;;;;;;;1999.90;999.90;;;16.70;99.90;;;;;;4961461;28;20498;-90
2021/06/06 01:21:34;;;;;;;1999.90;999.90;;;16.60;99.90;;;;;;4968852;28;20412;-91
2021/06/06 01:25:01;;;;;;;;;;;;;;;;;;;;;
2021/06/06 01:27:52;;;;;;;1999.90;999.90;;;16.60;99.90;;;;;;4880481;29;20401;-92
2021/06/06 01:30:31;;;;;;;1999.90;999.90;;;16.60;99.90;;;;;;4984264;28;20421;-91
2021/06/06 01:33:39;;;;;;;1999.90;999.90;;;16.70;99.90;;;;;;5072058;28;20431;-90
2021/06/06 01:36:39;;;;;;;1999.90;999.90;;;16.70;99.90;;;;;;5073111;28;20415;-91
2021/06/06 01:39:56;;;;;;;1999.90;999.90;;;16.60;99.90;;;;;;5071585;28;20512;-91
2021/06/06 01:43:26;;;;;;;1999.90;999.90;;;16.50;99.90;;;;;;5071431;28;20406;-91
2021/06/06 01:46:24;;;;;;;1999.90;999.90;;;16.70;99.90;;;;;;4975864;28;20461;-92
2021/06/06 01:52:24;;;;;;;1999.90;999.90;;;16.50;99.90;;;;;;5069593;28;20437;-91
2021/06/06 01:55:43;;;;;;;1999.90;999.90;;;16.50;99.90;;;;;;5071984;28;20455;-91
2021/06/06 01:58:41;;;;;;;1999.90;999.90;;;16.60;99.90;;;;;;5066111;28;20467;-91
2021/06/06 02:01:16;;;;;;;1999.90;999.90;;;16.50;99.90;;;;;;5071365;28;20405;-91
2021/06/06 02:04:07;;;;;;;1999.90;999.90;;;16.60;99.90;;;;;;5073213;28;20419;-91
2021/06/06 02:06:56;;;;;;;1999.90;999.90;;;16.60;99.90;;;;;;5072924;28;20379;-91
2021/06/06 02:10:06;;;;;;;1999.90;999.90;;;16.60;99.90;;;;;;5071765;28;20522;-92
2021/06/06 02:13:03;;;;;;;1999.90;999.90;;;16.60;99.90;;;;;;5072688;28;20412;-91
2021/06/06 02:16:44;;;;;;;1999.90;999.90;;;16.60;99.90;;;;;;5073479;28;20444;-90
2021/06/06 02:19:32;;;;;;;1999.90;999.90;;;16.60;99.90;;;;;;5264447;22;20475;-91
2021/06/06 02:22:30;;;;;;;1999.90;999.90;;;16.50;99.90;;;;;;5028056;28;20493;-91
2021/06/06 02:25:19;;;;;;;1999.90;999.90;;;16.40;99.90;;;;;;4975061;28;20431;-91
2021/06/06 02:28:14;;;;;;;1999.90;999.90;;;16.40;99.90;;;;;;4991291;28;20434;-91
2021/06/06 02:31:12;;;;;;;1999.90;999.90;;;16.50;99.90;;;;;;4966850;28;20431;-91
2021/06/06 02:34:11;;;;;;;1999.90;999.90;;;16.40;99.90;;;;;;4978438;28;20505;-91
2021/06/06 02:36:57;;;;;;;1999.90;999.90;;;16.50;99.90;;;;;;5043608;28;20405;-91
2021/06/06 02:39:37;;;;;;;1999.90;999.90;;;16.50;99.90;;;;;;5056498;28;20414;-91
2021/06/06 02:42:29;;;;;;;1999.90;999.90;;;16.50;99.90;;;;;;5056541;28;20390;-91
2021/06/06 02:45:01;;;;;;;1999.90;999.90;;;16.50;99.90;;;;;;5045698;28;20401;-91
2021/06/06 02:47:37;;;;;;;1999.90;999.90;;;16.50;99.90;;;;;;5054926;28;20414;-91
2021/06/06 02:50:38;;;;;;;1999.90;999.90;;;16.40;99.90;;;;;;5054606;28;20430;-91
2021/06/06 02:53:42;;;;;;;1999.90;999.90;;;16.40;99.90;;;;;;5053314;28;20833;-90
2021/06/06 02:56:31;;;;;;;1999.90;999.90;;;16.20;99.90;;;;;;5052387;28;20520;-91
2021/06/06 02:59:07;;;;;;;1999.90;999.90;;;16.20;99.90;;;;;;5054632;28;20435;-90
2021/06/06 03:01:45;;;;;;;1999.90;999.90;;;16.30;99.90;;;;;;5055965;28;20380;-91
2021/06/06 03:04:23;;;;;;;1999.90;999.90;;;16.40;99.90;;;;;;5055746;28;20388;-90
2021/06/06 03:07:04;;;;;;;1999.90;999.90;;;16.40;99.90;;;;;;5054101;28;20986;-91
2021/06/06 03:09:36;;;;;;;1999.90;999.90;;;16.40;99.90;;;;;;5054870;28;20435;-90
2021/06/06 03:12:11;;;;;;;1999.90;999.90;;;16.50;99.90;;;;;;5054933;28;20548;-90
2021/06/06 03:15:07;;;;;;;1999.90;999.90;;;16.50;99.90;;;;;;5054959;28;20535;-91
2021/06/06 03:17:53;;;;;;;1999.90;999.90;;;16.40;99.90;;;;;;5048594;28;20772;-91
2021/06/06 03:20:53;;;;;;;1999.90;999.90;;;16.50;99.90;;;;;;5054507;28;20424;-91
2021/06/06 03:23:28;;;;;;;1999.90;999.90;;;16.50;99.90;;;;;;5038941;28;20412;-90
2021/06/06 03:26:10;;;;;;;1999.90;999.90;;;16.60;99.90;;;;;;5071152;28;20412;-90
2021/06/06 03:28:46;;;;;;;1999.90;999.90;;;16.60;99.90;;;;;;5056152;28;20428;-90
2021/06/06 03:31:40;;;;;;;1999.90;999.90;;;16.60;99.90;;;;;;5054296;28;20435;-91
2021/06/06 03:34:09;;;;;;;1999.90;999.90;;;16.50;99.90;;;;;;5054878;28;20854;-91
2021/06/06 03:37:11;;;;;;;1999.90;999.90;;;16.50;99.90;;;;;;5055259;28;20459;-91
2021/06/06 03:39:57;;;;;;;1999.90;999.90;;;16.50;99.90;;;;;;5051505;28;20432;-91
2021/06/06 03:42:24;;;;;;;1999.90;999.90;;;16.50;99.90;;;;;;5053998;28;20479;-90
2021/06/06 03:44:50;;;;;;;1999.90;999.90;;;16.60;99.90;;;;;;5054125;28;20914;-91
2021/06/06 03:47:21;;;;;;;1999.90;999.90;;;16.60;99.90;;;;;;5053796;28;20413;-90
2021/06/06 03:49:50;;;;;;;1999.90;999.90;;;16.50;99.90;;;;;;5053551;28;20185;-90
2021/06/06 03:52:21;;;;;;;1999.90;999.90;;;16.60;99.90;;;;;;5053815;28;20462;-91
2021/06/06 03:55:02;;;;;;;1999.90;999.90;;;16.60;99.90;;;;;;5054308;28;20891;-91
2021/06/06 03:57:28;;;;;;;1999.90;999.90;;;16.60;99.90;;;;;;5053083;28;20406;-91
2021/06/06 04:00:20;;;;;;;1999.90;999.90;;;16.50;99.90;;;;;;5054712;28;20470;-90
2021/06/06 04:02:54;;;;;;;1999.90;999.90;;;16.50;99.90;;;;;;5055362;28;20142;-90
2021/06/06 04:05:32;;;;;;;1999.90;999.90;;;16.50;99.90;;;;;;5055151;28;20379;-91
2021/06/06 04:08:25;;;;;;;1999.90;999.90;;;16.50;99.90;;;;;;5054534;28;20405;-91
2021/06/06 04:10:59;;;;;;;1999.90;999.90;;;16.50;99.90;;;;;;5054783;28;20746;-91
2021/06/06 04:13:33;;;;;;;1999.90;999.90;;;16.50;99.90;;;;;;5053115;28;20413;-90
2021/06/06 04:16:19;;;;;;;1999.90;999.90;;;16.60;99.90;;;;;;5052716;28;20413;-91
2021/06/06 04:18:48;;;;;;;1999.90;999.90;;;16.60;99.90;;;;;;5052294;28;20494;-91
2021/06/06 04:21:58;;;;;;;1999.90;999.90;;;16.60;99.90;;;;;;5054031;28;20425;-91
2021/06/06 04:24:26;;;;;;;1999.90;999.90;;;16.50;99.90;;;;;;5019509;28;20463;-91
2021/06/06 04:30:08;;;;;;;1999.90;999.90;;;16.60;99.90;;;;;;5053135;28;20456;-91
2021/06/06 04:32:43;;;;;;;1999.90;999.90;;;16.60;99.90;;;;;;5052364;28;20479;-91
2021/06/06 04:35:18;;;;;;;1999.90;999.90;;;16.60;99.90;;;;;;5053334;28;20447;-91
2021/06/06 04:37:51;;;;;;;1999.90;999.90;;;16.60;99.90;;;;;;5050268;28;20402;-92
2021/06/06 04:41:10;;;;;;;1999.90;999.90;;;16.70;99.90;;;;;;5052708;28;20923;-91
2021/06/06 04:43:20;;;;;;;1999.90;999.90;;;16.70;99.90;;;;;;5050330;28;20409;-91
2021/06/06 04:46:26;;;;;;;1999.90;999.90;;;16.70;99.90;;;;;;5053110;28;20415;-91
2021/06/06 04:49:03;;;;;;;1999.90;999.90;;;16.60;99.90;;;;;;5050994;28;20466;-91
2021/06/06 04:51:48;;;;;;;;;;;;;;;;;;;;;
2021/06/06 04:54:58;;;;;;;1999.90;999.90;;;16.50;99.90;;;;;;5052428;28;20520;-91
2021/06/06 04:57:41;;;;;;;1999.90;999.90;;;16.50;99.90;;;;;;5024181;28;20500;-91
2021/06/06 05:00:27;;;;;;;1999.90;999.90;;;16.50;99.90;;;;;;5052156;28;20473;-91
2021/06/06 05:03:27;;;;;;;1999.90;999.90;;;16.60;99.90;;;;;;5052087;28;20405;-91
2021/06/06 05:05:55;;;;;;;1999.90;999.90;;;16.70;99.90;;;;;;5052853;28;20385;-91
2021/06/06 05:08:28;;;;;;;1999.90;999.90;;;16.70;99.90;;;;;;5051556;28;20427;-91
2021/06/06 05:11:25;;;;;;;1999.90;999.90;;;16.70;99.90;;;;;;5053221;28;20802;-91
2021/06/06 05:13:56;;;;;;;1999.90;999.90;;;16.70;99.90;;;;;;5050893;28;20563;-91
2021/06/06 05:16:42;;;;;;;1999.90;999.90;;;16.70;99.90;;;;;;5051568;28;20423;-91
2021/06/06 05:19:08;;;;;;;1999.90;999.90;;;16.70;99.90;;;;;;5051373;28;20485;-91
2021/06/06 05:21:34;;;;;;;1999.90;999.90;;;16.70;99.90;;;;;;5047525;28;138197;-91
2021/06/06 05:24:03;;;;;;;1999.90;999.90;;;16.70;99.90;;;;;;5051951;28;20417;-91
2021/06/06 05:26:29;;;;;;;1999.90;999.90;;;16.60;99.90;;;;;;5053223;28;20928;-91
2021/06/06 05:29:03;;;;;;;1999.90;999.90;;;16.50;99.90;;;;;;5053099;28;20427;-91
2021/06/06 05:31:28;;;;;;;1999.90;999.90;;;16.50;99.90;;;;;;5051995;28;20196;-91
2021/06/06 05:33:54;;;;;;;1999.90;999.90;;;16.50;99.90;;;;;;5052070;28;20871;-91
2021/06/06 05:36:26;;;;;;;1999.90;999.90;;;16.50;99.90;;;;;;5053254;28;20190;-91
2021/06/06 05:38:53;;;;;;;1999.90;999.90;;;16.50;99.90;;;;;;5053040;28;20678;-91
2021/06/06 05:41:19;;;;;;;1999.90;999.90;;;16.50;99.90;;;;;;5053051;28;20410;-91
2021/06/06 05:43:53;;;;;;;1999.90;999.90;;;16.50;99.90;;;;;;5051779;28;20421;-91
2021/06/06 05:46:20;;;;;;;1999.90;999.90;;;16.60;99.90;;;;;;5053070;28;20389;-91
2021/06/06 05:48:46;;;;;;;1999.90;999.90;;;16.70;99.90;;;;;;5052922;28;20423;-91
2021/06/06 05:51:14;;;;;;;1999.90;999.90;;;16.70;99.90;;;;;;5051667;28;20413;-91
2021/06/06 05:53:40;;;;;;;1999.90;999.90;;;16.60;99.90;;;;;;5052970;28;20540;-91
2021/06/06 05:56:10;;;;;;;1999.90;999.90;;;16.70;99.90;;;;;;5052036;28;20507;-91
2021/06/06 05:58:42;;;;;;;1999.90;999.90;;;16.70;99.90;;;;;;5051934;28;20194;-91
2021/06/06 06:01:12;;;;;;;1999.90;999.90;;;16.70;99.90;;;;;;5050678;28;20962;-91
2021/06/06 06:03:40;;;;;;;1999.90;999.90;;;16.70;99.90;;;;;;5051848;28;20445;-91
2021/06/06 06:06:07;;;;;;;1999.90;999.90;;;16.70;99.90;;;;;;5054134;28;20399;-91
2021/06/06 06:12:14;;;;;;;1999.90;999.90;;;16.60;99.90;;;;;;5020099;28;20407;-84
2021/06/06 06:19:06;;;;;;;;;;;;;;;;;;;;;
2021/06/06 06:21:48;;;;;;;1999.90;999.90;;;16.60;99.90;;;;;;5082579;28;20497;-85
2021/06/06 06:24:36;;;;;;;1999.90;999.90;;;16.60;99.90;;;;;;5081506;28;20413;-84
2021/06/06 06:34:23;;;;;;;;;;;;;;;;;;;;;
2021/06/06 06:37:25;;;;;;;;;;;;;;;;;;;;;
2021/06/06 06:43:27;;;;;;;1999.90;999.90;;;16.70;99.90;;;;;;5082374;28;20405;-84
2021/06/06 06:46:22;;;;;;;;;;;;;;;;;;;;;
2021/06/06 06:52:55;;;;;;;1999.90;999.90;;;16.50;99.90;;;;;;4999918;28;20511;-84
2021/06/06 06:56:16;;;;;;;1999.90;999.90;;;16.50;99.90;;;;;;4960900;29;20561;-84
2021/06/06 06:58:47;;;;;;;1999.90;999.90;;;16.60;99.90;;;;;;4967631;28;20535;-84
2021/06/06 07:02:16;;;;;;;1999.90;999.90;;;16.50;99.90;;;;;;5000201;28;21007;-84
2021/06/06 07:04:32;;;;;;;1999.90;999.90;;;16.60;99.90;;;;;;4988731;28;20416;-84
2021/06/06 07:10:38;;;;;;;1999.90;999.90;;;16.60;99.90;;;;;;5102846;23;20491;-84
2021/06/06 07:13:45;;;;;;;1999.90;999.90;;;16.70;99.90;;;;;;5081044;28;20475;-84
2021/06/06 07:16:34;;;;;;;1999.90;999.90;;;16.70;99.90;;;;;;4964118;28;20448;-84
2021/06/06 07:19:32;;;;;;;1999.90;999.90;;;16.70;99.90;;;;;;5059739;28;20935;-84
2021/06/06 07:22:37;;;;;;;;;;;;;;;;;;;;;
2021/06/06 07:25:23;;;;;;;1999.90;999.90;;;16.80;99.90;;;;;;4979529;28;20523;-83
2021/06/06 07:28:26;;;;;;;1999.90;999.90;;;16.80;99.90;;;;;;5081605;28;20766;-84
2021/06/06 07:31:13;;;;;;;1999.90;999.90;;;16.80;99.90;;;;;;5082072;28;20388;-84
2021/06/06 07:34:00;;;;;;;1999.90;999.90;;;16.70;99.90;;;;;;5080871;28;20417;-84
2021/06/06 07:36:44;;;;;;;1999.90;999.90;;;16.60;99.90;;;;;;5063000;28;20419;-84
2021/06/06 07:39:17;;;;;;;1999.90;999.90;;;16.60;99.90;;;;;;5062903;28;20455;-82
2021/06/06 07:42:07;;;;;;;1999.90;999.90;;;16.60;99.90;;;;;;5062453;28;20431;-84
2021/06/06 07:44:33;;;;;;;1999.90;999.90;;;16.70;99.90;;;;;;5080995;28;20435;-84
2021/06/06 07:47:06;;;;;;;1999.90;999.90;;;16.60;99.90;;;;;;5080095;28;20412;-83
2021/06/06 07:49:35;;;;;;;1999.90;999.90;;;16.60;99.90;;;;;;5080064;28;20429;-84
2021/06/06 07:52:01;;;;;;;1999.90;999.90;;;16.70;99.90;;;;;;5080422;28;20471;-83
2021/06/06 07:54:27;;;;;;;1999.90;999.90;;;16.70;99.90;;;;;;5062310;28;20486;-83
2021/06/06 07:56:54;;;;;;;1999.90;999.90;;;16.70;99.90;;;;;;5060753;28;20408;-82
2021/06/06 07:59:20;;;;;;;1999.90;999.90;;;16.70;99.90;;;;;;5061136;28;20240;-84
2021/06/06 08:01:47;;;;;;;1999.90;999.90;;;16.70;99.90;;;;;;5080117;28;20407;-83
2021/06/06 08:04:13;;;;;;;1999.90;999.90;;;16.70;99.90;;;;;;5062193;28;20172;-83
2021/06/06 08:06:39;;;;;;;1999.90;999.90;;;16.70;99.90;;;;;;5062164;28;20499;-83
2021/06/06 08:09:08;;;;;;;1999.90;999.90;;;16.70;99.90;;;;;;5078402;28;20213;-83
2021/06/06 08:11:43;;;;;;;1999.90;999.90;;;16.70;99.90;;;;;;5061007;28;20469;-83
2021/06/06 08:14:09;;;;;;;1999.90;999.90;;;16.80;99.90;;;;;;5061929;28;20451;-83
2021/06/06 08:16:36;;;;;;;1999.90;999.90;;;16.70;99.90;;;;;;5079868;28;20409;-83
2021/06/06 08:19:02;;;;;;;1999.90;999.90;;;16.70;99.90;;;;;;5079670;28;20568;-83
2021/06/06 08:21:44;;;;;;;1999.90;999.90;;;16.80;99.90;;;;;;5079085;28;20895;-83
2021/06/06 08:24:10;;;;;;;1999.90;999.90;;;16.80;99.90;;;;;;5061370;28;20444;-83
2021/06/06 08:26:36;;;;;;;1999.90;999.90;;;16.80;99.90;;;;;;5079667;28;20409;-82
2021/06/06 08:29:04;;;;;;;1999.90;999.90;;;16.80;99.90;;;;;;5079146;28;20195;-83
2021/06/06 08:31:32;;;;;;;1999.90;999.90;;;16.70;99.90;;;;;;5060118;28;20435;-83
2021/06/06 08:33:58;;;;;;;1999.90;999.90;;;16.70;99.90;;;;;;5059894;28;20502;-82
2021/06/06 08:36:26;;;;;;;1999.90;999.90;;;16.60;99.90;;;;;;5060169;28;20413;-83
2021/06/06 08:38:55;;;;;;;1999.90;999.90;;;16.60;99.90;;;;;;5077933;28;20429;-83
2021/06/06 08:41:28;;;;;;;1999.90;999.90;;;16.70;99.90;;;;;;5078690;28;20429;-84
2021/06/06 08:44:05;;;;;;;1999.90;999.90;;;16.70;99.90;;;;;;5078748;28;20741;-85
2021/06/06 08:46:36;;;;;;;1999.90;999.90;;;16.70;99.90;;;;;;5060315;28;20827;-84
2021/06/06 08:49:04;;;;;;;1999.90;999.90;;;16.70;99.90;;;;;;5060505;28;20919;-84
2021/06/06 08:51:41;;;;;;;1999.90;999.90;;;16.70;99.90;;;;;;5078558;28;20408;-84
2021/06/06 08:54:52;;;;;;;1999.90;999.90;;;16.80;99.90;;;;;;5078626;28;20436;-84
2021/06/06 08:57:46;;;;;;;1999.90;999.90;;;16.80;99.90;;;;;;5039759;28;20404;-84
2021/06/06 09:00:27;;;;;;;1999.90;999.90;;;16.80;99.90;;;;;;5057072;28;20925;-84
2021/06/06 09:03:01;;;;;;;1999.90;999.90;;;16.90;99.90;;;;;;5060892;28;20470;-84
2021/06/06 09:05:42;;;;;;;1999.90;999.90;;;16.90;99.90;;;;;;5078716;28;20383;-84
2021/06/06 09:08:19;;;;;;;1999.90;999.90;;;16.90;99.90;;;;;;5061304;28;20436;-84
2021/06/06 09:10:50;;;;;;;1999.90;999.90;;;17.00;99.90;;;;;;5061178;28;20530;-84
2021/06/06 09:13:27;;;;;;;1999.90;999.90;;;17.00;99.90;;;;;;5061591;28;20416;-84
2021/06/06 09:15:57;;;;;;;1999.90;999.90;;;17.10;99.90;;;;;;5060701;28;20453;-84
2021/06/06 09:18:30;;;;;;;1999.90;999.90;;;17.10;99.90;;;;;;5078553;28;20424;-84
2021/06/06 09:21:10;;;;;;;1999.90;999.90;;;17.20;99.90;;;;;;5060249;28;20425;-84
2021/06/06 09:23:35;;;;;;;1999.90;999.90;;;17.10;99.90;;;;;;5078360;28;20456;-84
2021/06/06 09:26:09;;;;;;;1999.90;999.90;;;17.00;99.90;;;;;;5059976;28;20449;-84
2021/06/06 09:28:41;;;;;;;1999.90;999.90;;;17.00;99.90;;;;;;5077855;28;20327;-85
2021/06/06 09:31:19;;;;;;;1999.90;999.90;;;16.90;99.90;;;;;;5060463;28;20416;-84
2021/06/06 09:33:46;;;;;;;1999.90;999.90;;;16.90;99.90;;;;;;5059443;28;20933;-83
2021/06/06 09:36:35;;;;;;;1999.90;999.90;;;17.00;99.90;;;;;;5059984;28;20446;-84
2021/06/06 09:39:01;;;;;;;1999.90;999.90;;;17.00;99.90;;;;;;5059454;28;20425;-83
2021/06/06 09:41:33;;;;;;;1999.90;999.90;;;16.90;99.90;;;;;;5081295;28;20477;-83
2021/06/06 09:44:18;;;;;;;1999.90;999.90;;;16.90;99.90;;;;;;5065777;28;20427;-81
2021/06/06 09:46:52;;;;;;;1999.90;999.90;;;17.00;99.90;;;;;;5084518;28;20411;-83
2021/06/06 09:49:31;;;;;;;1999.90;999.90;;;16.90;99.90;;;;;;5083663;28;20423;-83
2021/06/06 09:52:09;;;;;;;1999.90;999.90;;;16.90;99.90;;;;;;5065534;28;20478;-84
2021/06/06 09:54:35;;;;;;;1999.90;999.90;;;16.90;99.90;;;;;;5066118;28;20939;-84
2021/06/06 09:57:25;;;;;;;1999.90;999.90;;;16.90;99.90;;;;;;5067533;28;20403;-84
2021/06/06 10:00:08;;;;;;;1999.90;999.90;;;16.90;99.90;;;;;;5084051;28;20182;-82
2021/06/06 10:02:41;;;;;;;1999.90;999.90;;;16.90;99.90;;;;;;5066062;28;20407;-84
2021/06/06 10:05:11;;;;;;;1999.90;999.90;;;17.00;99.90;;;;;;5066402;28;20486;-82
2021/06/06 10:08:03;;;;;;;1999.90;999.90;;;17.00;99.90;;;;;;5066988;28;20923;-85
2021/06/06 10:10:42;;;;;;;1999.90;999.90;;;17.00;99.90;;;;;;5066396;28;20465;-83
2021/06/06 10:13:12;;;;;;;1999.90;999.90;;;16.90;99.90;;;;;;5084712;28;20399;-84
2021/06/06 10:15:43;;;;;;;1999.90;999.90;;;16.90;99.90;;;;;;5066060;28;20487;-84
2021/06/06 10:18:25;;;;;;;1999.90;999.90;;;17.00;99.90;;;;;;5084950;28;20549;-84
2021/06/06 10:21:15;;;;;;;1999.90;999.90;;;17.10;99.90;;;;;;5066685;28;20408;-83
2021/06/06 10:23:50;;;;;;;1999.90;999.90;;;17.10;99.90;;;;;;5067183;28;20400;-84
2021/06/06 10:26:21;;;;;;;1999.90;999.90;;;17.20;99.90;;;;;;5085254;28;20384;-84
2021/06/06 10:28:54;;;;;;;1999.90;999.90;;;17.40;99.90;;;;;;5066913;28;20434;-84
2021/06/06 10:31:26;;;;;;;1999.90;999.90;;;17.40;99.90;;;;;;5066583;28;20472;-84
2021/06/06 10:33:56;;;;;;;1999.90;999.90;;;17.60;99.90;;;;;;5084714;28;20394;-84
2021/06/06 10:36:26;;;;;;;1999.90;999.90;;;17.80;99.90;;;;;;5085010;28;20412;-84
2021/06/06 10:38:52;;;;;;;1999.90;999.90;;;17.80;99.90;;;;;;5084634;28;20429;-83
2021/06/06 10:41:25;;;;;;;1999.90;999.90;;;17.90;99.90;;;;;;5066870;28;20918;-85
2021/06/06 10:43:55;;;;;;;1999.90;999.90;;;18.10;99.90;;;;;;5065602;28;20459;-83
2021/06/06 10:46:33;;;;;;;1999.90;999.90;;;18.20;99.90;;;;;;5083637;28;20398;-84
2021/06/06 10:49:22;;;;;;;1999.90;999.90;;;18.20;99.90;;;;;;5065278;28;20794;-83
2021/06/06 10:52:06;;;;;;;1999.90;999.90;;;18.30;99.90;;;;;;5066080;28;20402;-84
2021/06/06 10:54:49;;;;;;;1999.90;999.90;;;18.30;99.90;;;;;;5062684;28;20449;-84
2021/06/06 10:57:32;;;;;;;1999.90;999.90;;;18.20;99.90;;;;;;5081595;28;20928;-84
2021/06/06 11:00:01;;;;;;;1999.90;999.90;;;18.20;99.90;;;;;;5080895;28;20493;-84
2021/06/06 11:02:31;;;;;;;1999.90;999.90;;;18.30;99.90;;;;;;5080596;28;20485;-85
2021/06/06 11:05:00;;;;;;;1999.90;999.90;;;18.40;99.90;;;;;;5062134;28;20402;-83
2021/06/06 11:07:39;;;;;;;1999.90;999.90;;;18.50;99.90;;;;;;5061543;28;20495;-86
2021/06/06 11:10:13;;;;;;;1999.90;999.90;;;18.40;99.90;;;;;;5061731;28;20531;-86
2021/06/06 11:12:40;;;;;;;1999.90;999.90;;;18.50;99.90;;;;;;5079816;28;20450;-87
2021/06/06 11:15:32;;;;;;;1999.90;999.90;;;18.50;99.90;;;;;;5061897;28;20446;-86
2021/06/06 11:18:15;;;;;;;1999.90;999.90;;;18.50;99.90;;;;;;5080389;28;20383;-86
2021/06/06 11:21:01;;;;;;;1999.90;999.90;;;18.50;99.90;;;;;;5062693;28;20505;-86
2021/06/06 11:23:46;;;;;;;1999.90;999.90;;;18.50;99.90;;;;;;5062360;28;20483;-86
2021/06/06 11:26:44;;;;;;;1999.90;999.90;;;18.50;99.90;;;;;;5063169;28;20403;-86
2021/06/06 11:29:21;;;;;;;1999.90;999.90;;;18.40;99.90;;;;;;5055604;28;20427;-86
2021/06/06 11:32:13;;;;;;;1999.90;999.90;;;18.30;99.90;;;;;;5061894;28;20413;-85
2021/06/06 11:34:44;;;;;;;1999.90;999.90;;;18.30;99.90;;;;;;5079030;28;20438;-85
2021/06/06 11:37:38;;;;;;;1999.90;999.90;;;18.40;99.90;;;;;;5078304;28;20456;-84
2021/06/06 11:40:09;;;;;;;1999.90;999.90;;;18.40;99.90;;;;;;5052577;28;20422;-87
2021/06/06 11:42:39;;;;;;;1999.90;999.90;;;18.60;99.90;;;;;;5080823;28;20383;-87
2021/06/06 11:45:10;;;;;;;1999.90;999.90;;;18.60;99.90;;;;;;5063867;28;20430;-87
2021/06/06 11:47:52;;;;;;;1999.90;999.90;;;18.60;99.90;;;;;;5080755;28;20375;-87
2021/06/06 11:50:24;;;;;;;1999.90;999.90;;;18.60;99.90;;;;;;5081710;28;20417;-87
2021/06/06 11:53:14;;;;;;;1999.90;999.90;;;18.60;99.90;;;;;;5081364;28;20405;-87
2021/06/06 11:55:44;;;;;;;1999.90;999.90;;;18.70;99.90;;;;;;5061378;28;20445;-86
2021/06/06 11:58:21;;;;;;;1999.90;999.90;;;18.60;99.90;;;;;;5078401;28;20407;-84
2021/06/06 12:01:05;;;;;;;1999.90;999.90;;;18.40;99.90;;;;;;5060496;28;20401;-86
2021/06/06 12:03:37;;;;;;;1999.90;999.90;;;18.60;99.90;;;;;;5060349;28;20402;-85
2021/06/06 12:06:08;;;;;;;1999.90;999.90;;;18.70;99.90;;;;;;5060571;28;20454;-86
2021/06/06 12:08:40;;;;;;;1999.90;999.90;;;18.70;99.90;;;;;;5088549;23;20553;-91
2021/06/06 12:11:21;;;;;;;1999.90;999.90;;;18.70;99.90;;;;;;5035101;28;20868;-91
2021/06/06 12:13:49;;;;;;;1999.90;999.90;;;18.50;99.90;;;;;;5035690;28;20372;-91
2021/06/06 12:16:27;;;;;;;1999.90;999.90;;;18.50;99.90;;;;;;5034571;28;20499;-91
2021/06/06 12:19:09;;;;;;;1999.90;999.90;;;18.50;99.90;;;;;;5017446;28;20893;-91
2021/06/06 12:21:38;;;;;;;1999.90;999.90;;;18.50;99.90;;;;;;5034844;28;20385;-90
2021/06/06 12:24:22;;;;;;;1999.90;999.90;;;18.60;99.90;;;;;;5034793;28;20404;-91
2021/06/06 12:27:04;;;;;;;1999.90;999.90;;;18.70;99.90;;;;;;5034746;28;20391;-91
2021/06/06 12:29:38;;;;;;;1999.90;999.90;;;18.80;99.90;;;;;;5016679;28;21014;-91
2021/06/06 12:32:12;;;;;;;1999.90;999.90;;;19.00;99.90;;;;;;5016531;28;20415;-91
2021/06/06 12:34:39;;;;;;;1999.90;999.90;;;19.10;99.90;;;;;;5034633;28;20486;-91
2021/06/06 12:37:20;;;;;;;1999.90;999.90;;;19.20;99.90;;;;;;5016632;28;20428;-91
2021/06/06 12:39:50;;;;;;;1999.90;999.90;;;19.20;99.90;;;;;;5034003;28;20427;-92
2021/06/06 12:42:16;;;;;;;1999.90;999.90;;;19.30;99.90;;;;;;5034843;28;20798;-91
2021/06/06 12:44:48;;;;;;;1999.90;999.90;;;19.30;99.90;;;;;;5034542;28;20400;-91
2021/06/06 12:47:34;;;;;;;1999.90;999.90;;;19.20;99.90;;;;;;5016491;28;20452;-91
2021/06/06 12:50:04;;;;;;;1999.90;999.90;;;19.20;99.90;;;;;;5016290;28;20463;-91
2021/06/06 12:52:47;;;;;;;1999.90;999.90;;;19.10;99.90;;;;;;5016837;28;20496;-91
2021/06/06 12:55:19;;;;;;;1999.90;999.90;;;19.00;99.90;;;;;;5016823;28;21033;-91
2021/06/06 12:57:52;;;;;;;1999.90;999.90;;;19.00;99.90;;;;;;5033875;28;20377;-90
2021/06/06 13:00:33;;;;;;;1999.90;999.90;;;19.10;99.90;;;;;;5034516;28;20376;-91
2021/06/06 13:03:01;;;;;;;1999.90;999.90;;;19.20;99.90;;;;;;5016100;28;20412;-91
2021/06/06 13:05:44;;;;;;;1999.90;999.90;;;19.30;99.90;;;;;;5034931;28;20403;-91
2021/06/06 13:08:39;;;;;;;1999.90;999.90;;;19.20;99.90;;;;;;5033725;28;20435;-91
2021/06/06 13:11:09;;;;;;;1999.90;999.90;;;19.30;99.90;;;;;;5016616;28;20400;-91
2021/06/06 13:13:53;;;;;;;1999.90;999.90;;;19.30;99.90;;;;;;5033679;28;20397;-91
2021/06/06 13:16:33;;;;;;;1999.90;999.90;;;19.30;99.90;;;;;;5015338;28;20411;-91
2021/06/06 13:19:06;;;;;;;1999.90;999.90;;;19.20;99.90;;;;;;5015882;28;20419;-91
2021/06/06 13:21:46;;;;;;;1999.90;999.90;;;19.30;99.90;;;;;;5034059;28;20399;-91
2021/06/06 13:24:24;;;;;;;1999.90;999.90;;;19.30;99.90;;;;;;5033805;28;20384;-91
2021/06/06 13:26:55;;;;;;;1999.90;999.90;;;19.40;99.90;;;;;;5015986;28;20454;-91
2021/06/06 13:29:48;;;;;;;1999.90;999.90;;;19.40;99.90;;;;;;5015601;28;20478;-91
2021/06/06 13:32:26;;;;;;;1999.90;999.90;;;19.30;99.90;;;;;;5016354;28;20785;-91
2021/06/06 13:34:57;;;;;;;1999.90;999.90;;;19.30;99.90;;;;;;5033288;28;20439;-91
2021/06/06 13:37:27;;;;;;;1999.90;999.90;;;19.30;99.90;;;;;;5016203;28;20923;-90
2021/06/06 13:40:06;;;;;;;1999.90;999.90;;;19.30;99.90;;;;;;5033333;28;20831;-91
2021/06/06 13:42:36;;;;;;;1999.90;999.90;;;19.30;99.90;;;;;;5016189;28;20401;-91
2021/06/06 13:45:03;;;;;;;1999.90;999.90;;;19.30;99.90;;;;;;5015442;28;20495;-90
2021/06/06 13:47:29;;;;;;;1999.90;999.90;;;19.10;99.90;;;;;;5033078;28;20434;-90
2021/06/06 13:49:55;;;;;;;1999.90;999.90;;;19.20;99.90;;;;;;5015445;28;20424;-90
2021/06/06 13:52:21;;;;;;;1999.90;999.90;;;19.10;99.90;;;;;;5033116;28;20170;-90
2021/06/06 13:54:48;;;;;;;1999.90;999.90;;;19.20;99.90;;;;;;5015601;28;20195;-90
2021/06/06 13:57:14;;;;;;;1999.90;999.90;;;19.30;99.90;;;;;;5016680;28;20408;-91
2021/06/06 13:59:40;;;;;;;1999.90;999.90;;;19.20;99.90;;;;;;5015644;28;20513;-91
2021/06/06 14:02:15;;;;;;;1999.90;999.90;;;19.10;99.90;;;;;;5015726;28;20173;-91